createdAt,value
2023-01-21T00:01:56.663Z,3.07
2023-01-21T00:04:24.642Z,2.94
2023-01-21T00:06:52.573Z,2.86
2023-01-21T00:09:20.516Z,2.73
2023-01-21T00:11:48.465Z,2.69
2023-01-21T00:14:16.379Z,2.70
2023-01-21T00:16:44.323Z,2.68
2023-01-21T00:19:13.619Z,2.70
2023-01-21T00:21:41.545Z,2.70
2023-01-21T00:24:09.648Z,2.68
2023-01-21T00:26:37.951Z,2.66
2023-01-21T00:29:05.953Z,2.70
2023-01-21T00:31:34.241Z,2.67
2023-01-21T00:34:02.363Z,2.64
2023-01-21T00:36:31.749Z,2.58
2023-01-21T00:38:59.789Z,2.57
2023-01-21T00:41:27.787Z,2.61
2023-01-21T00:43:55.719Z,2.61
2023-01-21T00:46:23.674Z,2.62
2023-01-21T00:48:51.683Z,2.64
2023-01-21T00:51:19.846Z,2.61
2023-01-21T00:53:49.250Z,2.55
2023-01-21T00:56:17.226Z,2.56
2023-01-21T00:58:45.463Z,2.52
2023-01-21T01:01:14.305Z,2.49
2023-01-21T01:03:42.366Z,2.42
2023-01-21T01:06:11.715Z,2.40
2023-01-21T01:08:39.698Z,2.36
2023-01-21T01:11:09.033Z,2.34
2023-01-21T01:13:37.278Z,2.26
2023-01-21T01:16:05.869Z,2.19
2023-01-21T01:18:35.454Z,2.04
2023-01-21T01:21:03.517Z,2.19
2023-01-21T01:23:31.557Z,2.23
2023-01-21T01:26:00.169Z,2.24
2023-01-21T01:28:29.701Z,2.23
2023-01-21T01:30:57.845Z,2.22
2023-01-21T01:33:26.010Z,2.12
2023-01-21T01:35:53.955Z,2.16
2023-01-21T01:38:23.035Z,2.14
2023-01-21T01:40:52.581Z,2.12
2023-01-21T01:43:21.555Z,2.11
2023-01-21T01:45:50.846Z,2.12
2023-01-21T01:48:20.301Z,2.09
2023-01-21T01:50:48.257Z,2.16
2023-01-21T01:53:16.354Z,2.20
2023-01-21T01:55:44.293Z,2.19
2023-01-21T01:58:13.487Z,2.21
2023-01-21T02:00:41.419Z,2.27
2023-01-21T02:03:28.178Z,2.26
2023-01-21T02:05:56.169Z,2.27
2023-01-21T02:08:24.377Z,2.29
2023-01-21T02:10:54.034Z,2.21
2023-01-21T02:13:22.013Z,2.23
2023-01-21T02:15:56.460Z,2.22
2023-01-21T02:18:30.993Z,2.18
2023-01-21T02:21:24.360Z,2.09
2023-01-21T02:24:07.050Z,2.13
2023-01-21T02:26:53.396Z,2.05
2023-01-21T02:29:51.114Z,2.05
2023-01-21T02:32:40.962Z,2.02
2023-01-21T02:35:11.859Z,2.01
2023-01-21T02:37:41.467Z,1.96
2023-01-21T02:40:12.753Z,1.97
2023-01-21T02:42:43.603Z,1.99
2023-01-21T02:45:19.839Z,1.97
2023-01-21T02:47:50.863Z,1.90
2023-01-21T02:50:23.119Z,1.82
2023-01-21T02:52:56.634Z,1.99
2023-01-21T02:55:26.747Z,2.05
2023-01-21T02:57:55.781Z,1.96
2023-01-21T03:00:25.513Z,2.10
2023-01-21T03:03:26.077Z,2.13
2023-01-21T03:06:34.832Z,2.11
2023-01-21T03:09:05.392Z,2.08
2023-01-21T03:11:33.326Z,2.04
2023-01-21T03:14:19.546Z,1.99
2023-01-21T03:16:58.063Z,2.08
2023-01-21T03:19:30.245Z,2.08
2023-01-21T03:21:59.801Z,2.05
2023-01-21T03:24:27.797Z,2.05
2023-01-21T03:26:57.209Z,1.86
2023-01-21T03:29:26.058Z,1.97
2023-01-21T03:31:56.697Z,1.97
2023-01-21T03:34:25.215Z,1.97
2023-01-21T03:36:55.047Z,1.99
2023-01-21T03:39:28.490Z,1.99
2023-01-21T03:41:56.434Z,2.01
2023-01-21T03:44:24.438Z,2.02
2023-01-21T03:46:57.171Z,2.06
2023-01-21T03:49:28.586Z,2.04
2023-01-21T03:51:57.408Z,1.86
2023-01-21T03:54:26.712Z,1.95
2023-01-21T03:56:54.681Z,1.92
2023-01-21T03:59:22.656Z,1.88
2023-01-21T04:01:50.724Z,1.89
2023-01-21T04:04:18.714Z,1.89
2023-01-21T04:06:46.631Z,1.84
2023-01-21T04:09:14.566Z,1.82
2023-01-21T04:11:45.657Z,1.79
2023-01-21T04:14:13.726Z,1.75
2023-01-21T04:16:41.749Z,1.75
2023-01-21T04:19:09.992Z,1.74
2023-01-21T04:21:37.992Z,1.73
2023-01-21T04:24:06.680Z,1.70
2023-01-21T04:26:34.668Z,1.72
2023-01-21T04:29:04.151Z,1.71
2023-01-21T04:31:32.169Z,1.75
2023-01-21T04:34:00.355Z,1.77
2023-01-21T04:36:28.318Z,1.74
2023-01-21T04:38:56.315Z,1.72
2023-01-21T04:41:25.530Z,1.68
2023-01-21T04:43:53.803Z,1.66
2023-01-21T04:46:23.206Z,1.64
2023-01-21T04:48:51.125Z,1.67
2023-01-21T04:51:19.108Z,1.70
2023-01-21T04:53:47.082Z,1.75
2023-01-21T04:56:15.062Z,1.80
2023-01-21T04:58:43.064Z,1.83
2023-01-21T05:01:11.121Z,1.83
2023-01-21T05:03:40.467Z,1.83
2023-01-21T05:06:08.747Z,1.83
2023-01-21T05:08:36.755Z,1.79
2023-01-21T05:11:04.751Z,1.75
2023-01-21T05:13:32.753Z,1.72
2023-01-21T05:16:04.698Z,1.69
2023-01-21T05:18:32.685Z,1.64
2023-01-21T05:21:02.031Z,1.66
2023-01-21T05:23:30.123Z,1.63
2023-01-21T05:25:58.086Z,1.57
2023-01-21T05:28:26.059Z,1.59
2023-01-21T05:30:54.072Z,1.58
2023-01-21T05:33:26.289Z,1.57
2023-01-21T05:35:54.325Z,1.58
2023-01-21T05:38:23.685Z,1.62
2023-01-21T05:40:51.670Z,1.69
2023-01-21T05:43:19.638Z,1.74
2023-01-21T05:45:47.617Z,1.79
2023-01-21T05:48:15.610Z,1.83
2023-01-21T05:50:43.597Z,1.85
2023-01-21T05:53:11.556Z,1.89
2023-01-21T06:19:46.037Z,1.64
2023-01-21T06:22:15.142Z,1.77
2023-01-21T06:24:43.087Z,2.15
2023-01-21T06:27:11.011Z,2.36
2023-01-21T06:29:38.974Z,2.58
2023-01-21T06:32:07.613Z,2.56
2023-01-21T06:34:35.623Z,2.92
2023-01-21T06:37:04.955Z,3.03
2023-01-21T06:39:33.129Z,3.22
2023-01-21T06:42:01.094Z,3.31
2023-01-21T06:44:29.012Z,3.43
2023-01-21T06:47:01.049Z,3.47
2023-01-21T06:49:29.432Z,3.59
2023-01-21T06:51:57.504Z,3.71
2023-01-21T06:54:29.439Z,3.80
2023-01-21T06:56:58.422Z,3.89
2023-01-21T06:59:26.362Z,4.02
2023-01-21T07:01:55.172Z,4.11
2023-01-21T07:04:23.336Z,4.24
2023-01-21T07:06:51.267Z,4.28
2023-01-21T07:09:19.275Z,4.41
2023-01-21T07:11:48.754Z,4.48
2023-01-21T07:14:16.721Z,4.60
2023-01-21T07:16:44.688Z,4.71
2023-01-21T07:19:12.727Z,4.73
2023-01-21T07:21:41.571Z,4.82
2023-01-21T07:24:09.769Z,4.98
2023-01-21T07:26:38.301Z,4.99
2023-01-21T07:29:07.680Z,5.07
2023-01-21T07:31:35.771Z,5.13
2023-01-21T07:34:03.828Z,5.04
2023-01-21T07:36:31.812Z,5.08
2023-01-21T07:38:59.714Z,5.17
2023-01-21T07:41:27.662Z,5.17
2023-01-21T07:43:55.617Z,5.31
2023-01-21T07:46:25.026Z,5.51
